Latest Weather Observations for Amberley

IDQ60901

Issued at 4:01 pm EST Tuesday 28 July 2015 (issued every 10 minutes, with the page automatically refreshed every 10 minutes)

About weather observations | Map of Brisbane area stations | Latest observations for Brisbane area | Other Formats
Station Details ID: 040004 Name: AMBERLEY AMO Lat: -27.63 Lon: 152.71 Height: 24.2 m
Data from the previous 72 hours. | See also: Recent months at Amberley
Date/Time
EST
Tmp

°C
App
Tmp
°C
Dew
Point
°C
Rel
Hum
%
Delta-T

°C
Wind Press
QNH
hPa
Press
MSL
hPa
Rain
since
9 am
mm
Dir
 
Spd
km/h
Gust
km/h
Spd
kts
Gust
kts
28/03:30pm 20.6 18.3 2.8 31 8.4 WSW 4 11 2 6 1027.4 - 0.0
28/03:00pm 21.1 17.5 2.7 29 8.6 SW 11 17 6 9 1027.4 1027.4 0.0
28/02:30pm 20.9 17.7 3.0 30 8.5 SW 9 13 5 7 1027.3 - 0.0
28/02:00pm 21.2 18.2 3.9 32 8.3 N 9 15 5 8 1027.6 - 0.0
28/01:30pm 21.1 17.7 4.0 32 8.2 WSW 11 17 6 9 1027.8 - 0.0
28/12:30pm 19.6 17.0 4.0 35 7.4 S 7 15 4 8 1028.7 - 0.0
28/11:30am 18.6 16.2 4.2 38 6.8 W 6 13 3 7 1029.6 - 0.0
28/11:00am 17.6 15.9 3.8 40 6.5 S 2 7 1 4 1030.2 - 0.0
28/10:30am 16.3 13.8 3.6 42 5.9 WSW 6 15 3 8 1030.6 - 0.0
28/10:00am 15.1 12.5 3.3 45 5.4 SSW 6 11 3 6 1030.7 - 0.0
28/09:00am 13.0 10.3 3.8 53 4.1 WNW 7 13 4 7 1030.7 1030.7 0.0
28/08:30am 11.6 8.5 3.4 57 3.6 WNW 9 13 5 7 1030.4 - 0.0
28/08:00am 9.7 6.4 4.5 70 2.3 NW 11 15 6 8 1030.1 - 0.0
28/07:00am 7.2 6.1 5.1 86 0.9 CALM 0 0 0 0 1029.5 - 0.0
28/06:30am 7.2 6.2 5.6 89 0.7 CALM 0 0 0 0 1029.1 - 0.0
28/05:30am 7.7 6.0 5.7 87 0.9 SSW 4 9 2 5 1028.5 - 0.0
28/05:00am 8.3 7.3 5.6 83 1.2 CALM 0 0 0 0 1028.2 - 0.0
28/04:30am 7.9 7.1 6.4 90 0.7 CALM 0 0 0 0 1028.0 - 0.0
28/04:00am 7.7 6.3 5.4 85 1.0 SSW 2 9 1 5 1027.8 - 0.0
28/03:30am 7.5 6.3 4.7 82 1.2 CALM 0 0 0 0 1027.6 - 0.0
28/03:00am 8.1 6.7 3.4 72 2.0 CALM 0 0 0 0 1027.5 1027.5 0.0
28/02:30am 7.7 6.3 3.7 76 1.7 CALM 0 0 0 0 1027.3 - 0.0
28/02:00am 7.7 6.4 4.2 78 1.5 CALM 0 0 0 0 1027.4 - 0.0
28/01:30am 7.8 4.8 4.1 77 1.6 NNW 9 9 5 5 1027.3 - 0.0
28/01:00am 8.6 5.7 4.5 75 1.8 NNW 9 11 5 6 1027.5 - 0.0
28/12:30am 8.9 6.7 5.1 77 1.7 N 6 9 3 5 1027.4 - 0.0
 
Date/Time
EST
Tmp

°C
App
Tmp
°C
Dew
Point
°C
Rel
Hum
%
Delta-T

°C
Wind Press
QNH
hPa
Press
MSL
hPa
Rain
since
9 am
mm
Dir
 
Spd
km/h
Gust
km/h
Spd
kts
Gust
kts
27/11:00pm 10.5 7.4 5.7 72 2.2 NW 11 13 6 7 1027.0 - 0.0
27/10:30pm 11.5 8.4 5.4 66 2.8 NW 11 17 6 9 1027.1 - 0.0
27/10:00pm 10.3 8.9 5.7 73 2.1 NW 2 9 1 5 1026.8 - 0.0
27/09:30pm 11.2 8.5 5.8 69 2.5 NW 9 11 5 6 1026.6 - 0.0
27/09:00pm 12.4 9.9 5.0 60 3.4 NW 7 9 4 5 1026.2 1026.2 0.0
27/08:30pm 13.6 11.0 4.1 52 4.3 N 7 9 4 5 1025.9 - 0.0
27/08:00pm 14.1 9.9 4.0 50 4.6 W 15 20 8 11 1025.6 - 0.0
27/07:30pm 15.7 11.8 3.4 43 5.6 W 13 17 7 9 1025.1 - 0.0
27/07:00pm 15.3 11.5 4.0 47 5.2 W 13 17 7 9 1024.8 - 0.0
27/06:30pm 16.3 12.8 3.7 43 5.8 W 11 15 6 8 1024.3 - 0.0
27/05:30pm 17.5 13.0 4.0 40 6.3 W 17 24 9 13 1023.3 - 0.0
27/05:00pm 18.3 13.7 3.8 38 6.8 W 17 24 9 13 1023.0 - 0.0
27/04:30pm 19.4 15.2 3.7 35 7.4 W 15 22 8 12 1022.7 - 0.0
27/04:00pm 20.5 14.9 3.4 32 8.1 W 22 28 12 15 1022.3 - 0.0
27/03:30pm 21.5 17.0 2.2 28 9.0 W 15 20 8 11 1022.0 - 0.0
27/03:00pm 21.7 16.3 1.5 26 9.3 W 19 24 10 13 1021.9 1022.0 0.0
27/02:30pm 22.1 16.2 1.9 26 9.4 W 22 33 12 18 1021.8 - 0.0
27/02:00pm 22.6 17.5 3.1 28 9.3 W 19 28 10 15 1021.8 - 0.0
27/01:30pm 22.9 17.2 3.0 27 9.5 SW 22 35 12 19 1021.9 - 0.0
27/01:00pm 22.5 16.7 2.3 26 9.5 W 22 30 12 16 1021.9 - 0.0
27/12:30pm 22.9 16.8 3.0 27 9.5 WNW 24 30 13 16 1022.4 - 0.0
27/12:00pm 23.0 18.4 1.5 24 10.0 WSW 15 22 8 12 1022.8 1022.9 0.0
27/11:30am 22.0 16.8 2.7 28 9.1 SW 19 24 10 13 1023.4 - 0.0
27/11:00am 21.0 16.7 5.4 36 7.7 W 17 24 9 13 1023.8 - 0.0
27/10:30am 20.1 17.7 6.8 42 6.7 NNW 9 15 5 8 1024.4 - 0.0
27/10:00am 18.9 15.9 5.8 42 6.4 NW 11 19 6 10 1024.5 - 0.0
27/09:30am 18.3 14.7 5.2 42 6.3 WNW 13 17 7 9 1024.7 - 0.0
27/09:00am 17.3 14.8 8.0 54 4.7 WNW 11 15 6 8 1024.8 1024.8 0.0
27/08:30am 15.5 13.6 9.0 65 3.3 NW 9 11 5 6 1024.6 - 0.0
27/08:00am 12.9 12.6 10.2 84 1.4 N 2 9 1 5 1024.4 - 0.0
27/07:30am 9.7 9.4 8.5 92 0.6 CALM 0 0 0 0 1024.0 - 0.0
27/07:00am 7.3 6.5 6.4 94 0.4 CALM 0 0 0 0 1023.9 - 0.0
27/06:30am 7.5 6.8 6.8 95 0.3 CALM 0 0 0 0 1023.6 - 0.0
27/06:00am 7.3 6.5 6.4 94 0.4 CALM 0 0 0 0 1023.1 1023.2 0.0
27/05:30am 8.0 7.3 6.9 93 0.5 CALM 0 0 0 0 1022.6 - 0.0
27/05:00am 8.7 8.0 7.0 89 0.8 CALM 0 0 0 0 1022.3 - 0.0
27/04:30am 8.9 6.7 7.8 93 0.5 NNW 9 11 5 6 1022.1 - 0.0
27/04:00am 8.7 7.4 7.6 93 0.5 NNW 4 9 2 5 1022.0 - 0.0
27/03:30am 10.3 9.4 7.6 83 1.3 N 2 7 1 4 1022.0 - 0.0
27/03:00am 10.5 8.4 8.2 86 1.1 N 9 9 5 5 1021.9 1022.0 0.0
27/02:30am 10.5 9.1 8.7 89 0.9 WSW 6 11 3 6 1021.8 - 0.0
27/02:00am 14.1 10.4 8.1 67 3.0 W 17 24 9 13 1021.6 - 0.0
27/01:30am 12.6 9.2 9.2 80 1.7 W 17 19 9 10 1021.6 - 0.0
27/01:00am 14.6 12.6 10.0 74 2.4 W 11 15 6 8 1021.7 - 0.0
27/12:30am 14.3 12.2 11.1 81 1.7 W 13 13 7 7 1021.8 - 0.0
27/12:00am 14.4 13.1 12.4 88 1.1 W 11 15 6 8 1021.7 1021.8 0.0
 
Date/Time
EST
Tmp

°C
App
Tmp
°C
Dew
Point
°C
Rel
Hum
%
Delta-T

°C
Wind Press
QNH
hPa
Press
MSL
hPa
Rain
since
9 am
mm
Dir
 
Spd
km/h
Gust
km/h
Spd
kts
Gust
kts
26/11:30pm 15.1 14.3 12.9 87 1.2 W 9 13 5 7 1021.8 - 0.0
26/11:00pm 15.2 13.8 13.4 89 1.0 NW 13 15 7 8 1021.7 - 0.0
26/10:30pm 14.9 13.2 13.6 92 0.7 NW 15 17 8 9 1021.6 - 0.0
26/10:00pm 15.4 13.4 13.8 90 0.9 WNW 17 19 9 10 1021.4 - 0.0
26/09:30pm 15.3 13.6 13.7 90 0.9 WNW 15 15 8 8 1021.3 - 0.0
26/09:00pm 16.4 15.5 14.8 90 0.9 NW 13 15 7 8 1021.3 1021.4 0.0
26/08:30pm 16.8 17.3 15.6 93 0.7 WNW 7 9 4 5 1021.1 - 0.0
26/08:00pm 16.5 16.8 15.1 91 0.8 W 7 11 4 6 1020.5 - 0.0
26/07:30pm 17.0 17.0 15.3 90 1.0 NW 9 11 5 6 1020.1 - 0.0
26/07:00pm 17.7 17.1 15.7 88 1.2 NW 13 15 7 8 1019.7 - 0.0
26/06:30pm 17.0 16.6 15.1 88 1.1 NW 11 13 6 7 1019.3 - 0.0
26/06:00pm 17.6 16.8 15.0 85 1.5 NW 13 13 7 7 1019.0 1019.0 0.0
26/05:30pm 20.2 19.6 15.7 75 2.7 WNW 13 17 7 9 1018.6 - 0.0
26/05:00pm 21.2 19.7 15.3 69 3.5 WNW 17 24 9 13 1018.2 - 0.0
26/04:30pm 22.6 20.8 15.4 64 4.3 W 19 26 10 14 1018.0 - 0.0
26/04:00pm 23.0 20.9 15.3 62 4.6 W 20 28 11 15 1018.1 - 0.0
26/03:30pm 23.4 21.9 15.4 60 4.8 WSW 17 26 9 14 1017.8 - 0.0
26/03:00pm 23.7 20.9 15.4 59 5.0 W 24 30 13 16 1017.8 1017.8 0.0
26/02:30pm 22.2 20.0 15.9 67 3.8 WNW 22 30 12 16 1018.0 - 0.0
26/02:00pm 22.4 20.1 15.7 66 4.0 W 22 30 12 16 1017.8 - 0.0
26/01:30pm 21.7 22.4 15.7 68 3.6 NNW 6 9 3 5 1018.0 - 0.0
26/01:00pm 20.5 21.1 15.2 71 3.1 N 6 9 3 5 1018.5 - 0.0
26/12:30pm 19.4 19.6 14.8 75 2.7 WNW 7 11 4 6 1019.1 - 0.0
26/12:00pm 18.5 18.9 14.7 78 2.2 SW 6 9 3 5 1019.7 1019.8 0.0
26/11:30am 18.0 18.2 14.3 79 2.1 SSW 6 9 3 5 1020.1 - 0.0
26/11:00am 17.1 17.1 14.3 83 1.6 SSW 7 9 4 5 1020.9 - 0.0
26/10:30am 17.0 17.2 14.6 86 1.4 SW 7 11 4 6 1021.4 - 0.0
26/10:00am 15.8 17.0 13.8 88 1.1 CALM 0 0 0 0 1021.7 - 0.0
26/09:30am 15.3 16.5 13.7 90 0.9 CALM 0 0 0 0 1021.9 - 0.0
26/09:00am 14.4 15.4 13.1 92 0.7 CALM 0 0 0 0 1021.8 1021.9 0.2
26/08:30am 13.8 14.6 12.7 93 0.6 CALM 0 0 0 0 1021.6 - 0.2
26/08:00am 13.5 13.9 12.4 93 0.6 SW 2 7 1 4 1021.5 - 0.2
26/07:30am 12.8 12.2 12.2 96 0.3 SW 7 9 4 5 1021.5 - 0.2
26/07:09am 12.5 12.0 11.9 96 0.3 SW 6 7 3 4 1021.4 - 0.2
26/07:00am 12.4 12.2 11.8 96 0.3 SW 4 7 2 4 1021.6 - 0.2
26/06:57am 12.4 12.6 11.8 96 0.3 SW 2 7 1 4 1021.6 - 0.2
26/06:30am 12.5 11.7 11.7 95 0.4 SW 7 9 4 5 1021.5 - 0.2
26/06:16am 12.2 12.3 11.6 96 0.3 SSW 2 7 1 4 1021.4 - 0.2
26/06:03am 12.1 11.4 11.5 96 0.3 SSW 6 7 3 4 1021.1 - 0.0
26/06:00am 12.1 11.4 11.5 96 0.3 SSW 6 7 3 4 1021.3 1021.4 0.0
26/05:30am 11.5 11.8 10.9 96 0.3 CALM 0 7 0 4 1021.1 - 0.0
26/05:29am 11.5 11.8 10.9 96 0.3 CALM 0 0 0 0 1021.1 - 0.0
26/05:13am 11.2 11.4 10.6 96 0.3 CALM 0 0 0 0 1020.6 - 0.0
26/05:00am 11.1 10.5 10.5 96 0.3 WSW 4 7 2 4 1020.6 - 0.0
26/04:41am 11.2 9.7 10.6 96 0.3 WSW 9 11 5 6 1020.9 - 0.0
26/04:31am 10.9 10.7 10.3 96 0.3 W 2 7 1 4 1020.7 - 0.0
26/04:30am 10.9 10.7 10.5 97 0.2 W 2 6 1 3 1020.7 - 0.0
26/04:17am 10.7 9.5 10.3 97 0.2 W 7 9 4 5 1020.5 - 0.0
26/04:06am 10.1 8.3 9.5 96 0.3 SW 9 11 5 6 1020.6 - 0.0
26/04:00am 9.6 8.3 9.2 97 0.2 SSW 6 11 3 6 1020.4 - 0.0
26/03:45am 10.0 9.9 9.6 97 0.2 CALM 0 - 0 - 1020.4 - 0.0
26/03:44am 10.0 9.9 9.6 97 0.2 CALM 0 - 0 - 1020.4 - 0.0
26/03:30am 10.4 10.5 10.0 97 0.2 CALM 0 - 0 - 1020.6 - 0.0
26/03:00am 10.3 10.3 9.9 97 0.2 CALM 0 - 0 - 1020.9 1021.0 0.0
26/02:30am 10.6 10.7 10.2 97 0.2 CALM 0 7 0 4 1021.4 - 0.0
26/02:14am 10.8 10.1 10.0 95 0.4 S 4 7 2 4 1021.6 - 0.0
26/02:00am 11.3 9.8 10.5 95 0.4 SSW 9 11 5 6 1021.4 - 0.0
26/01:35am 10.8 9.5 9.8 93 0.5 SW 7 7 4 4 1021.2 - 0.0
26/01:30am 11.0 10.3 10.2 95 0.4 ESE 4 7 2 4 1021.2 - 0.0
26/01:05am 10.7 10.7 9.9 95 0.4 CALM 0 7 0 4 1020.9 - 0.0
26/01:00am 10.8 10.9 10.0 95 0.4 CALM 0 4 0 2 1020.9 - 0.0
26/12:30am 10.8 10.9 10.2 96 0.3 CALM 0 0 0 0 1021.3 - 0.0
26/12:00am 11.2 10.6 10.4 95 0.4 E 4 9 2 5 1021.5 1021.6 0.0
 
Date/Time
EST
Tmp

°C
App
Tmp
°C
Dew
Point
°C
Rel
Hum
%
Delta-T

°C
Wind Press
QNH
hPa
Press
MSL
hPa
Rain
since
9 am
mm
Dir
 
Spd
km/h
Gust
km/h
Spd
kts
Gust
kts
25/11:30pm 11.3 11.5 10.5 95 0.4 CALM 0 4 0 2 1021.6 - 0.0
25/11:04pm 11.9 12.3 11.3 96 0.3 CALM 0 0 0 0 1021.8 - 0.0
25/11:00pm 11.9 12.3 11.1 95 0.4 CALM 0 0 0 0 1021.8 - 0.0
25/10:30pm 11.9 12.3 11.3 96 0.3 CALM 0 0 0 0 1021.8 - 0.0
25/10:01pm 11.8 12.2 11.2 96 0.3 CALM 0 4 0 2 1022.0 - 0.0
25/10:00pm 11.8 12.2 11.2 96 0.3 CALM 0 6 0 3 1022.0 - 0.0
25/09:43pm 12.5 13.0 11.6 94 0.5 CALM 0 0 0 0 1021.9 - 0.0
25/09:30pm 12.1 12.5 11.1 94 0.5 CALM 0 0 0 0 1021.9 - 0.0
25/09:26pm 11.9 12.3 11.1 95 0.4 CALM 0 0 0 0 1021.9 - 0.0
25/09:00pm 13.3 14.1 12.4 94 0.5 CALM 0 0 0 0 1021.7 1021.8 0.0
25/08:30pm 13.9 14.5 11.8 87 1.1 CALM 0 0 0 0 1021.4 - 0.0
25/08:00pm 13.4 13.7 12.1 92 0.7 S 2 9 1 5 1021.4 - 0.0
25/07:30pm 15.4 15.3 12.1 81 1.8 SSE 4 9 2 5 1021.2 - 0.0
25/07:00pm 15.6 16.4 12.7 83 1.6 CALM 0 0 0 0 1021.2 - 0.0
25/06:30pm 16.2 17.1 13.0 81 1.8 CALM 0 0 0 0 1020.8 - 0.0
25/06:00pm 18.6 19.4 12.5 67 3.4 CALM 0 0 0 0 1020.2 1020.3 0.0
25/05:30pm 19.0 19.7 12.3 65 3.7 CALM 0 0 0 0 1019.8 - 0.0
25/05:00pm 21.8 20.2 11.6 52 5.7 WSW 11 13 6 7 1019.3 - 0.0
25/04:30pm 22.7 20.9 10.9 47 6.5 WSW 11 15 6 8 1019.1 - 0.0

Latest Capital City Observations: Canberra | Sydney | Melbourne | Brisbane | Adelaide | Perth | Hobart | Darwin

Other Formats:

Comma delimited format used in spreadsheet applications
http://www.bom.gov.au/fwo/IDQ60901/IDQ60901.94568.axf

JavaScript Object Notation format (JSON) in row-major order
http://www.bom.gov.au/fwo/IDQ60901/IDQ60901.94568.json